Time;durP1;ratioP1;P1;durP2;ratioP2;P2;SDS_P1;SDS_P2;PMS_P1;PMS_P2;Temp;Humidity;BMP_temperature;BMP_pressure;BME280_temperature;BME280_humidity;BME280_pressure;Samples;Min_cycle;Max_cycle;Signal;HPM_P1;HPM_P2
2021/10/08 00:02:45;;;;;;;15.53;11.03;;;;;;;4.18;100.00;100078.09;2135869;83;21068;-88
2021/10/08 00:05:46;;;;;;;21.45;11.80;;;;;;;4.16;100.00;100076.55;2135986;83;20969;-88
2021/10/08 00:08:46;;;;;;;21.70;12.05;;;;;;;4.15;100.00;100074.89;2136266;83;21519;-88
2021/10/08 00:11:47;;;;;;;23.25;12.78;;;;;;;4.12;100.00;100070.75;2135980;83;20992;-88
2021/10/08 00:14:48;;;;;;;21.87;11.75;;;;;;;4.11;100.00;100070.83;2135939;83;21610;-88
2021/10/08 00:17:49;;;;;;;28.07;13.60;;;;;;;4.12;100.00;100072.05;2136222;83;21020;-88
2021/10/08 00:20:49;;;;;;;22.00;13.28;;;;;;;4.11;100.00;100069.54;2135531;83;20990;-89
2021/10/08 00:23:50;;;;;;;25.60;13.08;;;;;;;4.10;100.00;100072.59;2135913;83;21012;-85
2021/10/08 00:26:51;;;;;;;24.05;12.73;;;;;;;4.11;100.00;100079.91;2135895;83;21076;-88
2021/10/08 00:29:52;;;;;;;27.73;15.05;;;;;;;4.09;100.00;100080.48;2135945;83;20973;-88
2021/10/08 00:32:52;;;;;;;29.18;16.85;;;;;;;4.07;100.00;100076.70;2136188;83;21552;-88
2021/10/08 00:35:53;;;;;;;27.17;16.10;;;;;;;4.07;100.00;100083.66;2136333;83;21002;-87
2021/10/08 00:38:54;;;;;;;26.23;16.73;;;;;;;4.07;100.00;100090.97;2136273;83;21324;-87
2021/10/08 00:41:55;;;;;;;30.12;15.08;;;;;;;4.05;100.00;100086.36;2136282;83;21008;-87
2021/10/08 00:44:55;;;;;;;23.42;13.22;;;;;;;4.00;100.00;100086.66;2136385;83;20977;-87
2021/10/08 00:47:56;;;;;;;23.05;12.53;;;;;;;3.98;100.00;100087.70;2136232;83;21015;-86
2021/10/08 00:50:57;;;;;;;22.30;10.95;;;;;;;3.96;100.00;100086.52;2136255;83;21064;-87
2021/10/08 00:53:58;;;;;;;23.18;11.85;;;;;;;3.94;100.00;100087.09;2136229;83;20980;-87
2021/10/08 00:56:58;;;;;;;21.33;12.00;;;;;;;3.94;100.00;100083.67;2128274;83;21568;-86
2021/10/08 00:59:59;;;;;;;26.68;14.85;;;;;;;3.94;100.00;100086.27;2126759;84;21025;-87
2021/10/08 01:03:00;;;;;;;25.85;15.10;;;;;;;3.91;100.00;100088.58;2126655;84;21028;-88
2021/10/08 01:06:01;;;;;;;26.10;14.38;;;;;;;3.90;100.00;100086.92;2126601;84;21088;-89
2021/10/08 01:09:02;;;;;;;22.32;12.53;;;;;;;3.90;100.00;100089.52;2126391;84;20997;-87
2021/10/08 01:12:02;;;;;;;23.05;11.70;;;;;;;3.84;100.00;100084.77;2126642;84;21069;-88
2021/10/08 01:15:03;;;;;;;24.52;13.18;;;;;;;3.78;100.00;100083.88;2126740;84;21061;-87
2021/10/08 01:18:04;;;;;;;27.48;13.80;;;;;;;3.71;100.00;100091.22;2126800;84;21028;-88
2021/10/08 01:21:05;;;;;;;28.20;15.03;;;;;;;3.65;100.00;100090.78;2126556;84;20986;-87
2021/10/08 01:24:06;;;;;;;22.17;13.08;;;;;;;3.57;100.00;100091.78;2127372;84;21416;-90
2021/10/08 01:27:06;;;;;;;25.92;14.30;;;;;;;3.47;100.00;100099.30;2126709;84;21068;-89
2021/10/08 01:30:07;;;;;;;15.88;10.50;;;;;;;3.41;100.00;100096.67;2126736;84;21516;-87
2021/10/08 01:33:08;;;;;;;25.55;13.53;;;;;;;3.36;100.00;100091.41;2126933;84;21523;-86
2021/10/08 01:36:09;;;;;;;24.75;13.62;;;;;;;3.29;100.00;100093.59;2126592;84;20950;-87
2021/10/08 01:39:10;;;;;;;23.38;13.93;;;;;;;3.25;100.00;100093.88;2126688;84;21041;-89
2021/10/08 01:42:10;;;;;;;21.90;13.13;;;;;;;3.20;100.00;100099.37;2126767;84;20969;-87
2021/10/08 01:45:11;;;;;;;24.52;15.35;;;;;;;3.18;100.00;100102.96;2126690;84;20942;-87
2021/10/08 01:48:12;;;;;;;28.47;13.88;;;;;;;3.16;100.00;100098.35;2126718;84;20996;-87
2021/10/08 01:51:13;;;;;;;26.35;15.75;;;;;;;3.14;100.00;100097.99;2126588;84;20977;-86
2021/10/08 01:54:14;;;;;;;34.08;16.00;;;;;;;3.13;100.00;100105.39;2126575;84;20961;-87
2021/10/08 01:57:14;;;;;;;27.00;15.50;;;;;;;3.16;100.00;100106.12;2126417;83;21056;-86
2021/10/08 02:00:15;;;;;;;22.65;14.30;;;;;;;3.19;100.00;100107.20;2126350;84;21001;-87
2021/10/08 02:03:16;;;;;;;23.10;15.08;;;;;;;3.21;100.00;100097.61;2126616;84;21039;-87
2021/10/08 02:06:17;;;;;;;26.02;15.30;;;;;;;3.23;100.00;100102.22;2126853;84;21524;-87
2021/10/08 02:09:18;;;;;;;25.85;14.40;;;;;;;3.23;100.00;100105.63;2126743;84;20969;-88
2021/10/08 02:12:18;;;;;;;34.13;15.25;;;;;;;3.25;100.00;100101.64;2126556;84;21097;-87
2021/10/08 02:15:19;;;;;;;27.98;14.93;;;;;;;3.25;100.00;100102.94;2126731;84;21006;-87
2021/10/08 02:18:20;;;;;;;30.20;15.28;;;;;;;3.23;100.00;100105.63;2126820;84;21017;-87
2021/10/08 02:21:21;;;;;;;32.13;17.05;;;;;;;3.20;100.00;100111.45;2126733;84;21017;-87
2021/10/08 02:24:22;;;;;;;23.65;13.38;;;;;;;3.16;100.00;100108.24;2126785;84;20961;-88
2021/10/08 02:27:22;;;;;;;26.23;13.88;;;;;;;3.11;100.00;100121.49;2126795;84;20980;-87
2021/10/08 02:30:23;;;;;;;30.40;15.48;;;;;;;3.07;100.00;100114.01;2105225;84;21517;-87
2021/10/08 02:33:24;;;;;;;28.27;14.07;;;;;;;3.04;100.00;100114.22;2126937;84;21004;-87
2021/10/08 02:36:25;;;;;;;28.85;15.88;;;;;;;3.02;100.00;100116.08;2126845;84;21024;-87
2021/10/08 02:39:26;;;;;;;31.20;18.05;;;;;;;3.01;100.00;100115.21;2126669;84;21014;-87
2021/10/08 02:42:27;;;;;;;24.57;14.60;;;;;;;3.01;100.00;100116.51;2126907;84;21527;-87
2021/10/08 02:45:27;;;;;;;23.07;13.98;;;;;;;2.99;100.00;100130.48;2126787;84;21531;-87
2021/10/08 02:48:28;;;;;;;23.62;13.65;;;;;;;2.84;100.00;100117.59;2126745;84;21036;-87
2021/10/08 02:51:33;;;;;;;25.92;13.80;;;;;;;2.82;100.00;100132.36;2126841;84;20954;-87
2021/10/08 02:54:31;;;;;;;27.25;13.22;;;;;;;2.76;100.00;100135.35;2126669;83;20986;-87
2021/10/08 02:57:32;;;;;;;22.85;13.08;;;;;;;2.75;100.00;100135.45;2134708;83;21040;-87
2021/10/08 03:00:33;;;;;;;21.75;13.10;;;;;;;2.73;100.00;100137.28;2136038;83;20981;-87
2021/10/08 03:03:34;;;;;;;26.68;14.98;;;;;;;2.73;100.00;100144.58;2136557;83;20996;-88
2021/10/08 03:06:35;;;;;;;26.45;17.32;;;;;;;2.71;100.00;100147.72;2136484;83;21027;-88
2021/10/08 03:09:35;;;;;;;28.85;16.55;;;;;;;2.70;100.00;100144.77;2136666;83;21029;-88
2021/10/08 03:12:36;;;;;;;30.90;17.23;;;;;;;2.67;100.00;100141.56;2136585;83;21559;-88
2021/10/08 03:15:37;;;;;;;30.80;16.70;;;;;;;2.65;100.00;100139.07;2136385;83;21100;-88
2021/10/08 03:18:38;;;;;;;30.00;16.45;;;;;;;2.66;100.00;100143.78;2136247;83;20973;-89
2021/10/08 03:21:38;;;;;;;19.62;13.08;;;;;;;2.68;100.00;100149.22;2135888;83;21068;-88
2021/10/08 03:24:39;;;;;;;20.55;13.43;;;;;;;2.65;100.00;100153.30;2135873;83;20986;-86
2021/10/08 03:27:40;;;;;;;20.37;11.97;;;;;;;2.56;100.00;100152.10;2136011;83;21055;-87
2021/10/08 03:30:41;;;;;;;24.15;15.08;;;;;;;2.48;100.00;100154.32;2135831;83;20993;-87
2021/10/08 03:33:42;;;;;;;30.50;17.65;;;;;;;2.41;100.00;100153.48;2136053;83;21053;-87
2021/10/08 03:36:51;;;;;;;25.85;14.78;;;;;;;2.39;100.00;100157.92;2136429;83;21535;-86
2021/10/08 03:39:51;;;;;;;23.55;14.47;;;;;;;2.39;100.00;100161.34;2136556;83;21065;-87
2021/10/08 03:42:52;;;;;;;26.35;17.35;;;;;;;2.35;100.00;100163.72;2136190;83;21544;-87
2021/10/08 03:45:54;;;;;;;28.15;15.75;;;;;;;2.36;100.00;100162.80;2136250;83;21104;-87
2021/10/08 03:52:07;;;;;;;20.90;12.60;;;;;;;2.41;100.00;100169.00;2136224;83;21036;-86
2021/10/08 03:55:08;;;;;;;28.30;14.10;;;;;;;2.36;100.00;100175.72;2136310;83;21004;-87
2021/10/08 03:58:09;;;;;;;27.50;14.15;;;;;;;2.30;100.00;100177.40;2127353;83;21063;-86
2021/10/08 04:01:09;;;;;;;27.75;16.30;;;;;;;2.21;100.00;100174.07;2126838;84;21005;-86
2021/10/08 04:04:10;;;;;;;32.55;17.48;;;;;;;2.12;100.00;100177.20;2127351;84;21088;-86
2021/10/08 04:07:11;;;;;;;23.62;16.02;;;;;;;2.02;100.00;100180.78;2126624;84;21052;-86
2021/10/08 04:10:12;;;;;;;23.15;13.48;;;;;;;2.00;100.00;100179.55;2126729;84;21456;-87
2021/10/08 04:13:13;;;;;;;30.92;15.55;;;;;;;1.95;100.00;100175.59;2126593;84;21056;-86
2021/10/08 04:16:13;;;;;;;34.33;15.80;;;;;;;1.89;100.00;100176.77;2126676;84;21501;-86
2021/10/08 04:19:14;;;;;;;31.73;16.93;;;;;;;1.94;100.00;100184.27;2126897;84;20993;-87
2021/10/08 04:22:15;;;;;;;23.65;15.30;;;;;;;1.97;100.00;100186.66;2126652;84;21080;-86
2021/10/08 04:25:16;;;;;;;24.27;15.15;;;;;;;1.97;100.00;100186.66;2126805;84;20981;-86
2021/10/08 04:28:16;;;;;;;26.07;15.08;;;;;;;1.96;100.00;100191.46;2126692;84;21068;-85
2021/10/08 04:31:17;;;;;;;27.50;14.30;;;;;;;1.88;100.00;100190.61;2126757;84;21583;-86
2021/10/08 04:34:18;;;;;;;27.60;14.30;;;;;;;1.84;100.00;100201.22;2126413;84;21035;-85
2021/10/08 04:37:19;;;;;;;32.45;13.88;;;;;;;1.78;100.00;100208.02;2126649;84;21005;-85
2021/10/08 04:40:20;;;;;;;26.82;15.00;;;;;;;1.73;100.00;100209.55;2126870;84;20958;-86
2021/10/08 04:43:21;;;;;;;32.50;17.12;;;;;;;1.70;100.00;100204.58;2126660;84;21001;-85
2021/10/08 04:46:21;;;;;;;25.27;15.15;;;;;;;1.70;100.00;100207.16;2126695;84;21096;-88
2021/10/08 04:49:22;;;;;;;24.40;13.28;;;;;;;1.64;100.00;100208.33;2126760;84;21012;-87
2021/10/08 04:52:23;;;;;;;33.30;17.07;;;;;;;1.63;100.00;100209.25;2126734;84;20993;-88
2021/10/08 04:55:24;;;;;;;29.50;16.75;;;;;;;1.59;100.00;100209.52;2126549;84;20949;-88
2021/10/08 04:58:25;;;;;;;28.52;14.98;;;;;;;1.64;100.00;100215.23;2135578;82;21120;-87
2021/10/08 05:01:25;;;;;;;32.05;15.10;;;;;;;1.63;100.00;100216.99;2136168;83;21489;-88
2021/10/08 05:04:26;;;;;;;31.62;18.35;;;;;;;1.60;100.00;100222.80;2136294;83;21029;-87
2021/10/08 05:07:27;;;;;;;45.70;23.67;;;;;;;1.62;100.00;100232.12;2136247;83;21020;-86
2021/10/08 05:10:28;;;;;;;44.45;22.22;;;;;;;1.64;100.00;100225.11;2135894;83;22091;-86
2021/10/08 05:13:28;;;;;;;41.92;18.45;;;;;;;1.69;100.00;100228.73;2136146;83;21488;-86
2021/10/08 05:16:30;;;;;;;33.02;16.05;;;;;;;1.74;100.00;100234.48;2136094;83;20981;-85
2021/10/08 05:19:30;;;;;;;37.38;16.25;;;;;;;1.74;100.00;100234.92;2135816;83;21092;-85
2021/10/08 05:22:31;;;;;;;29.20;15.18;;;;;;;1.75;100.00;100241.78;2136192;83;21508;-85
2021/10/08 05:25:32;;;;;;;34.10;15.72;;;;;;;1.74;100.00;100250.41;2136223;83;21123;-86
2021/10/08 05:28:33;;;;;;;27.55;16.77;;;;;;;1.77;100.00;100254.14;2136226;83;21036;-87
2021/10/08 05:31:34;;;;;;;24.47;13.62;;;;;;;1.79;100.00;100256.17;2136296;83;20993;-87
2021/10/08 05:34:36;;;;;;;25.52;13.45;;;;;;;1.85;100.00;100257.13;2136137;83;21000;-83
2021/10/08 05:37:37;;;;;;;22.75;10.82;;;;;;;1.89;100.00;100246.98;2136119;83;20996;-87
2021/10/08 05:40:38;;;;;;;19.73;10.65;;;;;;;1.96;100.00;100245.25;2135976;83;21004;-86
2021/10/08 05:43:42;;;;;;;20.02;11.10;;;;;;;2.02;100.00;100254.42;2106544;83;21700;-88
2021/10/08 05:46:43;;;;;;;18.30;10.40;;;;;;;2.10;100.00;100258.66;2135959;83;21084;-88
2021/10/08 05:49:44;;;;;;;17.27;9.48;;;;;;;2.21;100.00;100259.36;2136166;83;21539;-89
2021/10/08 05:52:44;;;;;;;20.88;10.48;;;;;;;2.30;100.00;100257.53;2136342;83;20976;-89
2021/10/08 05:55:45;;;;;;;19.32;10.78;;;;;;;2.38;100.00;100259.21;2136123;83;21001;-87
2021/10/08 05:58:46;;;;;;;26.02;12.93;;;;;;;2.48;100.00;100261.63;2126835;83;21608;-89
2021/10/08 06:01:47;;;;;;;24.10;11.53;;;;;;;2.58;100.00;100267.55;2126836;84;20981;-88
2021/10/08 06:04:47;;;;;;;24.77;12.60;;;;;;;2.67;100.00;100276.05;2126841;84;21016;-88
2021/10/08 06:07:48;;;;;;;25.10;13.13;;;;;;;2.78;100.00;100272.36;2126609;84;21000;-88
2021/10/08 06:10:49;;;;;;;25.85;13.22;;;;;;;2.93;100.00;100277.08;2125594;84;21029;-88
2021/10/08 06:13:50;;;;;;;25.62;13.40;;;;;;;3.07;100.00;100275.30;2126870;84;20997;-88
2021/10/08 06:16:51;;;;;;;22.85;11.33;;;;;;;3.19;100.00;100272.88;2126858;84;21048;-89
2021/10/08 06:19:51;;;;;;;21.55;10.13;;;;;;;3.35;100.00;100279.59;2126784;84;20965;-91
2021/10/08 06:22:52;;;;;;;18.45;10.65;;;;;;;3.46;100.00;100275.03;2126814;84;21004;-90
2021/10/08 06:25:53;;;;;;;31.65;12.33;;;;;;;3.58;100.00;100278.64;2126593;84;21045;-90
2021/10/08 06:28:54;;;;;;;20.25;9.25;;;;;;;3.71;100.00;100284.22;2126653;84;21020;-91
2021/10/08 06:31:55;;;;;;;21.15;9.13;;;;;;;3.86;100.00;100288.90;2126774;83;21020;-89
2021/10/08 06:34:56;;;;;;;17.62;10.28;;;;;;;3.93;100.00;100287.58;2126819;84;20969;-90
2021/10/08 06:37:56;;;;;;;20.95;9.70;;;;;;;3.98;100.00;100290.69;2126680;84;20996;-90
2021/10/08 06:40:57;;;;;;;16.45;9.43;;;;;;;4.08;100.00;100282.31;2126776;84;21079;-87
2021/10/08 06:43:58;;;;;;;23.15;11.43;;;;;;;4.17;100.00;100285.61;2126684;84;20997;-88
2021/10/08 06:47:15;;;;;;;21.93;10.25;;;;;;;4.38;100.00;100289.84;2126145;84;21020;-88
2021/10/08 06:50:15;;;;;;;26.73;11.03;;;;;;;4.54;100.00;100287.42;2124188;84;20993;-85
2021/10/08 06:53:16;;;;;;;16.80;8.73;;;;;;;4.75;100.00;100287.73;2127072;84;21012;-86
2021/10/08 06:56:17;;;;;;;17.42;9.00;;;;;;;5.01;100.00;100292.44;2126766;83;21019;-87
2021/10/08 06:59:18;;;;;;;12.98;7.22;;;;;;;5.26;100.00;100298.06;2135941;83;20992;-86
2021/10/08 07:02:19;;;;;;;22.95;8.25;;;;;;;5.56;100.00;100293.77;2135809;83;21603;-90
2021/10/08 07:05:20;;;;;;;12.13;7.17;;;;;;;5.86;100.00;100299.03;2136064;83;21028;-85
2021/10/08 07:08:21;;;;;;;19.82;8.95;;;;;;;6.10;100.00;100313.34;2136197;83;20985;-88
2021/10/08 07:11:22;;;;;;;20.30;7.85;;;;;;;6.30;98.55;100308.80;2136539;83;21040;-88
2021/10/08 07:14:26;;;;;;;15.93;8.88;;;;;;;6.47;95.35;100304.47;2134728;83;20993;-89
2021/10/08 07:17:26;;;;;;;14.10;6.78;;;;;;;6.63;97.25;100300.73;2135160;83;20981;-89
2021/10/08 07:20:27;;;;;;;17.50;8.48;;;;;;;6.77;94.96;100308.34;2137340;83;21044;-85
2021/10/08 07:23:28;;;;;;;17.77;7.90;;;;;;;6.90;96.94;100322.54;2109520;83;21032;-85
2021/10/08 07:26:29;;;;;;;18.10;8.55;;;;;;;7.01;94.16;100330.36;2138600;83;21060;-88
2021/10/08 07:29:33;;;;;;;15.25;6.37;;;;;;;7.13;90.21;100327.66;2138303;83;21505;-88
2021/10/08 07:32:33;;;;;;;13.35;7.08;;;;;;;7.23;89.40;100338.67;2138234;83;21004;-87
2021/10/08 07:35:34;;;;;;;13.68;7.47;;;;;;;7.32;90.14;100340.09;2138388;83;21044;-86
2021/10/08 07:38:38;;;;;;;18.67;8.88;;;;;;;7.46;89.42;100345.98;2136560;83;21043;-88
2021/10/08 07:41:40;;;;;;;17.45;8.33;;;;;;;7.59;90.61;100337.10;2135709;83;20997;-89
2021/10/08 07:47:48;;;;;;;19.23;7.00;;;;;;;7.79;83.76;100345.13;2121591;84;21000;-87
2021/10/08 07:50:50;;;;;;;18.37;7.80;;;;;;;7.88;81.44;100353.52;2119342;84;21078;-88
2021/10/08 07:53:58;;;;;;;17.00;7.70;;;;;;;7.94;83.15;100351.70;2108388;84;21511;-87
2021/10/08 07:56:59;;;;;;;19.30;7.25;;;;;;;8.03;76.17;100353.57;2125925;84;21058;-89
2021/10/08 08:00:13;;;;;;;19.80;7.62;;;;;;;8.12;80.62;100359.83;2130063;84;21164;-89
2021/10/08 08:03:11;;;;;;;14.68;7.05;;;;;;;8.17;77.06;100361.61;2126824;84;21105;-89
2021/10/08 08:06:16;;;;;;;14.15;6.92;;;;;;;8.26;79.32;100362.16;2121088;84;21027;-92
2021/10/08 08:09:20;;;;;;;22.02;8.18;;;;;;;8.38;80.61;100376.02;2128276;84;21471;-90
2021/10/08 08:12:33;;;;;;;;;;;;;;;;;;;;;
2021/10/08 08:15:38;;;;;;;;;;;;;;;;;;;;;
2021/10/08 08:18:35;;;;;;;20.10;8.45;;;;;;;8.71;72.36;100385.02;2127297;84;21046;-87
2021/10/08 08:21:37;;;;;;;13.55;8.50;;;;;;;8.80;71.29;100372.49;2128147;84;21078;-86
2021/10/08 08:24:38;;;;;;;27.20;9.18;;;;;;;8.91;71.84;100378.12;2133059;83;21053;-86
2021/10/08 08:27:39;;;;;;;16.67;8.13;;;;;;;9.00;70.38;100370.00;2138614;83;21074;-86
2021/10/08 08:30:41;;;;;;;10.95;7.53;;;;;;;9.10;68.47;100376.09;2138606;83;20972;-85
2021/10/08 08:33:45;;;;;;;13.58;7.87;;;;;;;9.18;68.29;100374.97;2138022;83;21730;-88
2021/10/08 08:36:46;;;;;;;15.53;8.88;;;;;;;9.26;64.53;100372.54;2137700;83;21028;-90
2021/10/08 08:39:48;;;;;;;21.48;9.70;;;;;;;9.32;64.84;100368.55;2138791;83;21004;-87
2021/10/08 08:42:49;;;;;;;15.85;9.13;;;;;;;9.41;63.95;100384.76;2138430;83;21075;-88
2021/10/08 08:45:50;;;;;;;20.23;9.08;;;;;;;9.48;64.99;100368.08;2138551;83;21023;-88
2021/10/08 08:48:51;;;;;;;14.05;8.15;;;;;;;9.56;65.82;100367.77;2138276;83;21040;-86
2021/10/08 08:51:52;;;;;;;21.25;9.43;;;;;;;9.68;62.98;100377.62;2138697;83;21701;-86
2021/10/08 08:54:54;;;;;;;18.30;9.00;;;;;;;9.74;59.85;100347.03;2138459;83;21028;-87
2021/10/08 08:57:55;;;;;;;17.98;8.63;;;;;;;9.77;60.48;100370.77;2137543;83;21640;-86
2021/10/08 09:00:56;;;;;;;18.30;7.78;;;;;;;9.83;61.79;100375.48;2136026;83;20938;-86
2021/10/08 09:03:57;;;;;;;19.30;8.38;;;;;;;9.94;58.57;100372.73;2136255;83;21512;-86
2021/10/08 09:07:01;;;;;;;18.25;8.60;;;;;;;10.05;59.18;100374.41;2136088;83;21013;-87
2021/10/08 09:10:01;;;;;;;15.70;7.60;;;;;;;10.13;59.18;100359.67;2135795;83;20997;-87
2021/10/08 09:13:02;;;;;;;14.38;7.30;;;;;;;10.23;60.27;100373.63;2136055;83;21009;-87
2021/10/08 09:16:03;;;;;;;15.23;7.12;;;;;;;10.31;57.60;100365.58;2135986;83;21580;-86
2021/10/08 09:19:04;;;;;;;14.35;9.13;;;;;;;10.38;56.80;100372.75;2136141;83;21084;-87
2021/10/08 09:22:05;;;;;;;19.52;8.18;;;;;;;10.46;56.28;100371.58;2136202;83;20980;-87
2021/10/08 09:25:06;;;;;;;19.07;7.55;;;;;;;10.54;55.09;100374.82;2136096;83;21092;-86
2021/10/08 09:28:07;;;;;;;12.07;7.45;;;;;;;10.63;56.47;100368.75;2136063;83;21471;-86
2021/10/08 09:31:09;;;;;;;15.70;7.72;;;;;;;10.71;54.11;100378.53;2135965;83;21571;-87
2021/10/08 09:34:10;;;;;;;16.15;7.83;;;;;;;10.77;53.98;100376.16;2136080;83;20973;-87
2021/10/08 09:37:13;;;;;;;14.85;7.78;;;;;;;10.79;51.64;100374.24;2135909;83;21053;-87
2021/10/08 09:40:14;;;;;;;10.80;7.53;;;;;;;10.87;49.34;100374.00;2136226;83;20981;-87
2021/10/08 09:43:15;;;;;;;14.85;8.18;;;;;;;10.92;48.70;100358.70;2136098;83;20976;-87
2021/10/08 09:46:16;;;;;;;12.65;8.35;;;;;;;10.92;45.20;100356.08;2136086;83;21496;-87
2021/10/08 09:49:18;;;;;;;16.35;7.75;;;;;;;10.94;46.18;100348.41;2135842;83;21614;-87
2021/10/08 09:52:19;;;;;;;18.42;7.75;;;;;;;11.03;46.75;100349.34;2136089;83;20988;-87
2021/10/08 09:55:20;;;;;;;21.07;9.48;;;;;;;11.11;45.72;100362.08;2136142;83;20985;-87
2021/10/08 09:58:21;;;;;;;12.13;7.92;;;;;;;11.18;43.38;100340.55;2135861;83;21052;-87
2021/10/08 10:01:23;;;;;;;13.78;7.95;;;;;;;11.25;42.76;100368.67;2136100;83;21062;-86
2021/10/08 10:04:24;;;;;;;17.55;8.50;;;;;;;11.30;42.42;100356.43;2135985;83;21024;-86
2021/10/08 10:07:25;;;;;;;14.18;7.45;;;;;;;11.31;42.42;100369.88;2136031;83;21100;-88
2021/10/08 10:10:26;;;;;;;16.87;8.23;;;;;;;11.35;41.58;100355.52;2136104;83;21377;-87
2021/10/08 10:13:28;;;;;;;16.45;7.83;;;;;;;11.48;43.48;100364.36;2136117;83;21025;-87
2021/10/08 10:16:29;;;;;;;15.63;7.62;;;;;;;11.53;40.86;100361.66;2136075;83;21028;-87
2021/10/08 10:19:30;;;;;;;16.27;8.23;;;;;;;11.51;37.82;100353.08;2136060;83;21041;-87
2021/10/08 10:22:31;;;;;;;14.87;7.78;;;;;;;11.51;37.82;100353.08;2136076;83;21511;-87
2021/10/08 10:25:32;;;;;;;17.50;8.50;;;;;;;11.58;38.65;100370.38;2135769;83;21024;-87
2021/10/08 10:28:34;;;;;;;14.20;6.95;;;;;;;11.65;39.63;100380.64;2135944;83;20989;-87
2021/10/08 10:31:35;;;;;;;13.45;7.40;;;;;;;11.68;36.71;100351.48;2136328;83;21024;-91
2021/10/08 10:34:36;;;;;;;19.85;8.95;;;;;;;11.73;39.22;100365.00;2134177;83;20973;-88
2021/10/08 10:37:38;;;;;;;10.70;7.28;;;;;;;11.82;38.98;100372.02;2117307;82;21005;-92
2021/10/08 10:40:38;;;;;;;14.18;8.63;;;;;;;11.88;39.62;100367.95;2098757;85;21095;-90
2021/10/08 10:43:42;;;;;;;16.97;8.78;;;;;;;11.89;38.20;100367.84;2179374;81;21041;-85
2021/10/08 10:46:53;;;;;;;16.90;7.65;;;;;;;11.92;38.34;100366.70;2180286;81;21549;-87
2021/10/08 10:49:56;;;;;;;15.15;7.83;;;;;;;12.01;39.26;100377.63;2181256;81;21525;-88
2021/10/08 10:52:58;;;;;;;15.58;7.67;;;;;;;12.01;35.33;100394.70;2181468;81;21063;-84
2021/10/08 10:55:59;;;;;;;9.95;6.65;;;;;;;12.02;35.18;100358.77;2181032;81;21082;-86
2021/10/08 10:59:00;;;;;;;12.58;6.85;;;;;;;12.01;35.44;100355.32;2174949;81;21010;-90
2021/10/08 11:02:00;;;;;;;10.80;6.37;;;;;;;11.96;35.20;100367.56;2171122;82;21054;-87
2021/10/08 11:05:01;;;;;;;14.33;9.03;;;;;;;12.01;35.29;100355.32;2171463;82;20974;-87
2021/10/08 11:08:02;;;;;;;12.00;8.30;;;;;;;12.01;34.40;100371.56;2171271;82;21433;-88
2021/10/08 11:11:03;;;;;;;9.18;7.42;;;;;;;12.06;35.03;100347.80;2171198;82;20966;-87
2021/10/08 11:14:04;;;;;;;9.80;6.53;;;;;;;12.09;35.65;100351.95;2171442;81;21502;-88
2021/10/08 11:17:04;;;;;;;9.68;6.60;;;;;;;12.13;34.94;100351.98;2171314;82;21041;-88
2021/10/08 11:20:05;;;;;;;13.43;7.08;;;;;;;12.19;36.38;100340.89;2171314;82;20982;-89
2021/10/08 11:23:06;;;;;;;17.12;7.00;;;;;;;12.27;36.19;100351.95;2171151;82;21020;-88
2021/10/08 11:26:07;;;;;;;11.60;7.50;;;;;;;12.40;36.46;100351.07;2171554;81;21005;-91
2021/10/08 11:29:08;;;;;;;13.78;7.65;;;;;;;12.48;36.60;100352.45;2172214;82;21068;-90
2021/10/08 11:32:09;;;;;;;15.20;8.43;;;;;;;12.49;36.17;100369.37;2172388;82;21021;-88
2021/10/08 11:35:19;;;;;;;16.00;8.38;;;;;;;12.49;37.28;100356.73;2172272;82;21100;-89
2021/10/08 11:38:13;;;;;;;15.23;7.42;;;;;;;12.48;36.52;100366.41;2169543;81;21069;-89
2021/10/08 11:41:15;;;;;;;12.93;7.72;;;;;;;12.51;36.81;100355.59;2171054;82;21081;-90
2021/10/08 11:44:24;;;;;;;15.30;7.08;;;;;;;12.55;36.61;100356.13;2160529;82;21518;-90
2021/10/08 11:53:36;;;;;;;11.33;6.12;;;;;;;12.40;35.73;100337.45;2171244;82;21040;-87
2021/10/08 11:56:37;;;;;;;11.08;7.58;;;;;;;12.44;36.08;100358.52;2171841;82;21496;-90
2021/10/08 11:59:38;;;;;;;11.40;5.47;;;;;;;12.49;36.53;100354.92;2184864;81;21049;-84
2021/10/08 12:02:40;;;;;;;14.78;6.83;;;;;;;12.49;35.38;100368.06;2190441;81;20974;-84
2021/10/08 12:05:41;;;;;;;13.72;6.95;;;;;;;12.49;36.28;100352.30;2190450;81;21060;-84
2021/10/08 12:08:42;;;;;;;9.95;5.87;;;;;;;12.49;36.28;100352.30;2190419;81;20946;-83
2021/10/08 12:11:43;;;;;;;18.40;7.30;;;;;;;12.55;36.68;100345.63;2190349;81;21036;-84
2021/10/08 12:14:44;;;;;;;11.80;6.50;;;;;;;12.60;36.35;100348.59;2190369;81;21042;-84
2021/10/08 12:17:52;;;;;;;14.15;7.37;;;;;;;12.63;36.20;100347.49;2190804;81;21088;-84
2021/10/08 12:20:50;;;;;;;12.95;6.22;;;;;;;12.65;36.62;100341.59;2189731;81;21049;-83
2021/10/08 12:23:51;;;;;;;13.00;7.75;;;;;;;12.68;37.41;100343.90;2190511;81;21008;-84
2021/10/08 12:26:52;;;;;;;17.15;6.62;;;;;;;12.77;37.90;100349.55;2190493;81;20978;-84
2021/10/08 12:29:53;;;;;;;18.98;6.60;;;;;;;12.78;37.18;100353.83;2190596;81;21032;-84
2021/10/08 12:32:54;;;;;;;12.23;6.00;;;;;;;12.80;37.14;100351.40;2190503;81;21021;-85
2021/10/08 12:35:54;;;;;;;13.70;5.42;;;;;;;12.75;37.08;100328.68;2190581;81;21022;-84
2021/10/08 12:38:55;;;;;;;14.30;6.53;;;;;;;12.86;37.10;100360.45;2190464;81;20982;-83
2021/10/08 12:41:58;;;;;;;13.05;6.37;;;;;;;12.88;36.93;100350.60;2190545;81;21049;-84
2021/10/08 12:44:59;;;;;;;18.32;7.42;;;;;;;12.85;36.41;100352.73;2190558;81;21013;-83
2021/10/08 12:48:00;;;;;;;10.03;5.28;;;;;;;12.83;36.13;100353.38;2190351;81;21084;-84
2021/10/08 12:51:01;;;;;;;12.75;5.85;;;;;;;12.81;36.54;100354.36;2190494;81;20997;-83
2021/10/08 12:54:02;;;;;;;11.78;6.33;;;;;;;12.83;37.33;100361.27;2190521;81;20985;-84
2021/10/08 12:57:03;;;;;;;11.55;6.42;;;;;;;12.80;36.93;100376.83;2190491;81;20973;-83
2021/10/08 13:00:04;;;;;;;15.88;6.80;;;;;;;12.75;36.98;100358.08;2177294;81;21071;-84
2021/10/08 13:03:05;;;;;;;9.33;4.65;;;;;;;12.73;37.14;100358.73;2173954;81;20997;-84
2021/10/08 13:06:05;;;;;;;11.43;5.97;;;;;;;12.73;37.26;100352.98;2173812;81;21030;-83
2021/10/08 13:09:12;;;;;;;8.73;6.12;;;;;;;12.72;37.82;100352.66;2173846;81;20997;-83
2021/10/08 13:12:09;;;;;;;15.98;6.50;;;;;;;12.70;36.73;100353.27;2173117;81;21557;-84
2021/10/08 13:15:10;;;;;;;12.75;5.42;;;;;;;12.69;37.32;100356.88;2173899;82;20943;-83
2021/10/08 13:18:12;;;;;;;9.60;4.78;;;;;;;12.70;37.24;100344.56;2173849;82;21048;-83
2021/10/08 13:21:13;;;;;;;9.45;4.72;;;;;;;12.73;37.99;100346.41;2173878;81;21612;-83
2021/10/08 13:24:14;;;;;;;12.20;5.67;;;;;;;12.74;37.40;100340.17;2173856;82;20974;-84
2021/10/08 13:27:15;;;;;;;11.65;4.42;;;;;;;12.75;37.87;100331.31;2173793;81;20974;-84
2021/10/08 13:30:16;;;;;;;7.78;5.78;;;;;;;12.77;37.58;100345.11;2173797;82;21050;-84
2021/10/08 13:33:19;;;;;;;7.25;4.30;;;;;;;12.74;36.46;100333.61;2173785;82;21029;-83
2021/10/08 13:36:19;;;;;;;9.73;4.62;;;;;;;12.71;36.57;100341.81;2171582;81;21532;-89
2021/10/08 13:39:20;;;;;;;8.65;4.87;;;;;;;12.71;37.09;100344.89;2171715;81;21033;-91
2021/10/08 13:42:21;;;;;;;13.95;5.03;;;;;;;12.69;36.86;100342.42;2171415;82;21073;-91
2021/10/08 13:45:23;;;;;;;7.60;4.92;;;;;;;12.73;37.22;100337.70;2171085;82;21541;-90
2021/10/08 13:48:24;;;;;;;8.78;4.45;;;;;;;12.73;37.16;100325.39;2171577;82;20993;-94
2021/10/08 13:51:25;;;;;;;10.58;4.70;;;;;;;12.75;37.96;100335.74;2171686;81;20969;-91
2021/10/08 13:54:26;;;;;;;8.28;4.53;;;;;;;12.71;37.01;100328.67;2172482;81;20974;-90
2021/10/08 13:57:27;;;;;;;6.42;3.87;;;;;;;12.67;35.74;100336.50;2172581;82;21026;-86
2021/10/08 14:00:30;;;;;;;10.63;4.70;;;;;;;12.65;36.49;100337.16;2172475;80;21177;-90
2021/10/08 14:03:37;;;;;;;7.15;4.33;;;;;;;12.61;36.06;100346.80;2171903;81;20954;-90
2021/10/08 14:13:27;;;;;;;16.15;6.00;;;;;;;12.42;37.42;100334.66;2172354;81;21057;-89